Tallevast, FL (34270)

9:06 PM EDT en Abril 18, 2015 (GMT -0400)
Sarabay Woods - Whitfield | | Change Station
CLOSE
Current Station
Estación meteorológica personal
Location: Sarasota, FL
Altura: 20 ft
Estaciones meteorológicas cercanas

Alt 20 ft 27.41 °N, 82.55 °W | Updated 50 seconds ago

Partly Cloudy
Parcialmente nublado
79.3 ° F
Sensación térmica 83 ° F
N
0.0
Viento Variable Viento desde Oeste
Gusts 0.0 mph

Hoy
Alta -- | Baja -- ° F
--% Posibilidad de precipitaciones
Ayer
Alta -- | Baja -- ° F
Precip. -- pul
7:03 AM 7:56 PM
Luna nueva, 0% visible
Presión 29.95 pul
Visibilidad 10.0 Millas
Nubes Baja 1300 ft
Índice de calor 83 ° F
Punto de rocío 75 ° F
Humedad 86%
Precipitaciones 0.00 pul
Espesor de la nieve No disponible.
UV 0 de una escala de 12
Polen 8.80 de una escala de 12
Calidad del aire No disponible.
Flu Activity Local Activity
METAR KSRQ 190053Z 24005KT 10SM FEW013 26/23 A2995 RMK AO2 SLP140 T02560228

More Conditions Fewer Conditions

Presión 29.95 pul
Visibilidad 10.0 Millas
Nubes Baja 1300 ft
Índice de calor 83 ° F
Punto de rocío 75 ° F
Humedad 86%
Precipitaciones 0.00 pul
Espesor de la nieve No disponible.
UV 0 de una escala de 12
Polen 8.80 de una escala de 12
Calidad del aire No disponible.
Flu Activity Local Activity
METAR KSRQ 190053Z 24005KT 10SM FEW013 26/23 A2995 RMK AO2 SLP140 T02560228

More Conditions Fewer Conditions

10-Day Weather Forecast

Almanac

Astronomía

Apr. 18, 2015 Salida Puesta
Hora real
Crepúsculo civil
Crepúsculo náutico
Crepúsculo astronómico
Luna
Horas de luz
Horas de luz
Tomorrow will be .
, % of the Moon is Illuminated

Extremos de hoy

Máximos del estado Bajos del estado

Community

WunderPhotos

Upload Photos

1,814,609 ¡fotos cargadas!

WunderBlogs® & News

Nearby

Calidad del aire

  Calidad del aire Índice AQ Contaminante
Not available.

Grosos de nieve

Estación Profundido Altura

Actividad de terremotos

Ciudad Distance Mag. Tiempo y dato
Magnitud mínima muestra es 2,5.

Temperaturas de aguas costeras

Lugar Temperatura

Stations

Estaciones meteorológicas cercanas

Ubicación de la estación Temp. Vientos helados Punto de rocío Humedad Viento Precip. Alt Actualizado Tipo